Terminal Aerodrome Forecast
Issued by NWS

Home | Current Version | Previous Version | Text Only | Print | Product List | Glossary On
Versions: 1 2 3 4 5 6 7 8 9 10 11 12 13 14 15 16 17
960
FTUS46 KSTO 070530
TAFSAC
TAF
KSAC 070530Z 0706/0806 31003KT P6SM SCT250
     FM071100 32002KT 4SM BR BCFG SCT250
      TEMPO 0713/0717 1 1/2SM BR BCFG BKN001
     FM071800 33008KT P6SM SCT250=

USA.gov is the U.S. government's official web portal to all federal, state and local government web resources and services.